This is the latest recevied weather packets stored in our database for station/object KA1JKB. If no packets are shown the sender has not sent any weather packets the latest 10 day(s).
| Time | Temp. | Humidity | Pressure | Rain* | Wind** | Luminosity | Snow |
|---|---|---|---|---|---|---|---|
| 1787861818 | 27.22° C | 62% | 1012.7 hPa | 0 mm | - | 645 W/m² | - |
| 1787861516 | 27.78° C | 59% | 1012.4 hPa | 0 mm | - | 176 W/m² | - |
| 1787861212 | 28.33° C | 57% | 1012.5 hPa | 0 mm | - | 628 W/m² | - |
| 1787860910 | 28.33° C | 60% | 1012.7 hPa | 0 mm | - | 622 W/m² | - |
| 1787860606 | 28.33° C | 62% | 1012.6 hPa | 0 mm | - | 632 W/m² | - |
| 1787860306 | 28.33° C | 62% | 1012.6 hPa | 0 mm | - | 668 W/m² | - |
| 1787860001 | 27.78° C | 60% | 1012.8 hPa | 0 mm | - | 675 W/m² | - |
| 1787859697 | 27.22° C | 65% | 1012.8 hPa | 0 mm | - | 705 W/m² | - |
| 1787859396 | 27.78° C | 61% | 1012.7 hPa | 0 mm | - | 508 W/m² | - |
| 1787859092 | 27.78° C | 61% | 1012.8 hPa | 0 mm | - | 720 W/m² | - |
| 1787858788 | 27.78° C | 62% | 1012.7 hPa | 0 mm | - | 727 W/m² | - |
| 1787858484 | 27.78° C | 61% | 1012.8 hPa | 0 mm | - | 739 W/m² | - |
| 1787858183 | 27.22° C | 64% | 1012.9 hPa | 0 mm | - | 675 W/m² | - |
| 1787857879 | 27.78° C | 63% | 1012.8 hPa | 0 mm | - | 700 W/m² | - |
| 1787857575 | 27.22° C | 65% | 1012.8 hPa | 0 mm | - | 741 W/m² | - |
| 1787857269 | 26.67° C | 67% | 1012.7 hPa | 0 mm | - | 757 W/m² | - |
| 1787856968 | 27.22° C | 66% | 1012.7 hPa | 0 mm | - | 714 W/m² | - |
| 1787856663 | 26.67° C | 66% | 1012.8 hPa | 0 mm | - | 758 W/m² | - |
| 1787856363 | 27.22° C | 66% | 1012.8 hPa | 0 mm | - | 730 W/m² | - |
| 1787856058 | 26.67° C | 66% | 1012.8 hPa | 0 mm | - | 705 W/m² | - |
| 1787855758 | 26.11° C | 70% | 1012.8 hPa | 0 mm | - | 677 W/m² | - |
| 1787855453 | 26.67° C | 68% | 1013 hPa | 0 mm | - | 523 W/m² | - |
| 1787855149 | 26.11° C | 68% | 1012.9 hPa | 0 mm | - | 769 W/m² | - |
| 1787854844 | 25.56° C | 73% | 1012.9 hPa | 0 mm | - | 722 W/m² | - |
| 1787854544 | 25° C | 73% | 1012.8 hPa | 0 mm | - | 684 W/m² | - |
* Rain latest hour (hover to see other rain measurements)
** Current wind speed in m/s (hover to see current wind gust speed)